sensor_id;sensor_type;location;lat;lon;timestamp;temperature;humidity
65559;DHT22;52203;51.998;5.140;2023-04-06T00:01:41;-0.99;118.99
65559;DHT22;52203;51.998;5.140;2023-04-06T00:04:44;-1.13;118.99
65559;DHT22;52203;51.998;5.140;2023-04-06T00:07:54;-0.85;118.99
65559;DHT22;52203;51.998;5.140;2023-04-06T00:21:38;-1.33;118.99
65559;DHT22;52203;51.998;5.140;2023-04-06T00:38:42;-1.62;118.99
65559;DHT22;52203;51.998;5.140;2023-04-06T01:05:40;-1.11;118.99
65559;DHT22;52203;51.998;5.140;2023-04-06T01:19:10;-0.68;118.99
65559;DHT22;52203;51.998;5.140;2023-04-06T01:22:38;-0.67;118.99
65559;DHT22;52203;51.998;5.140;2023-04-06T01:26:03;-0.54;118.99
65559;DHT22;52203;51.998;5.140;2023-04-06T01:32:47;-0.39;118.99
65559;DHT22;52203;51.998;5.140;2023-04-06T01:36:29;-0.53;118.99
65559;DHT22;52203;51.998;5.140;2023-04-06T01:47:37;-0.31;118.99
65559;DHT22;52203;51.998;5.140;2023-04-06T01:54:25;-0.42;118.99
65559;DHT22;52203;51.998;5.140;2023-04-06T02:01:07;-0.41;118.99
65559;DHT22;52203;51.998;5.140;2023-04-06T02:03:33;-0.45;118.99
65559;DHT22;52203;51.998;5.140;2023-04-06T02:06:37;-0.40;118.99
65559;DHT22;52203;51.998;5.140;2023-04-06T02:09:54;-0.49;118.99
65559;DHT22;52203;51.998;5.140;2023-04-06T02:12:25;-0.49;118.99
65559;DHT22;52203;51.998;5.140;2023-04-06T02:14:57;-0.53;118.99
65559;DHT22;52203;51.998;5.140;2023-04-06T02:17:29;-0.46;118.99
65559;DHT22;52203;51.998;5.140;2023-04-06T02:20:09;-0.55;118.99
65559;DHT22;52203;51.998;5.140;2023-04-06T02:22:46;-0.54;118.99
65559;DHT22;52203;51.998;5.140;2023-04-06T02:32:02;-0.41;118.99
65559;DHT22;52203;51.998;5.140;2023-04-06T02:34:34;-0.42;118.99
65559;DHT22;52203;51.998;5.140;2023-04-06T02:37:06;-0.38;118.99
65559;DHT22;52203;51.998;5.140;2023-04-06T02:39:40;-0.38;118.99
65559;DHT22;52203;51.998;5.140;2023-04-06T02:42:06;-0.38;118.99
65559;DHT22;52203;51.998;5.140;2023-04-06T02:44:41;-0.41;118.99
65559;DHT22;52203;51.998;5.140;2023-04-06T02:47:33;-0.34;118.99
65559;DHT22;52203;51.998;5.140;2023-04-06T02:57:46;-0.37;118.99
65559;DHT22;52203;51.998;5.140;2023-04-06T03:00:31;-0.41;118.99
65559;DHT22;52203;51.998;5.140;2023-04-06T03:11:12;-0.59;118.99
65559;DHT22;52203;51.998;5.140;2023-04-06T03:13:56;-0.65;118.99
65559;DHT22;52203;51.998;5.140;2023-04-06T03:16:32;-0.71;118.99
65559;DHT22;52203;51.998;5.140;2023-04-06T03:19:22;-0.75;118.99
65559;DHT22;52203;51.998;5.140;2023-04-06T03:25:28;-0.86;118.99
65559;DHT22;52203;51.998;5.140;2023-04-06T03:28:49;-0.89;118.99
65559;DHT22;52203;51.998;5.140;2023-04-06T03:31:43;-0.93;118.99
65559;DHT22;52203;51.998;5.140;2023-04-06T03:45:09;-0.77;118.99
65559;DHT22;52203;51.998;5.140;2023-04-06T03:48:15;-0.71;118.99
65559;DHT22;52203;51.998;5.140;2023-04-06T03:54:41;-0.73;118.99
65559;DHT22;52203;51.998;5.140;2023-04-06T04:00:17;-0.79;118.99
65559;DHT22;52203;51.998;5.140;2023-04-06T04:02:43;-0.84;118.99
65559;DHT22;52203;51.998;5.140;2023-04-06T04:05:40;-0.88;118.99
65559;DHT22;52203;51.998;5.140;2023-04-06T04:08:16;-0.88;118.99
65559;DHT22;52203;51.998;5.140;2023-04-06T04:13:52;-0.81;118.99
65559;DHT22;52203;51.998;5.140;2023-04-06T04:16:17;-0.74;118.99
65559;DHT22;52203;51.998;5.140;2023-04-06T04:18:56;-0.69;118.99
65559;DHT22;52203;51.998;5.140;2023-04-06T04:21:33;-0.56;118.99
65559;DHT22;52203;51.998;5.140;2023-04-06T04:24:03;-0.56;118.99
65559;DHT22;52203;51.998;5.140;2023-04-06T04:26:42;-0.47;118.99
65559;DHT22;52203;51.998;5.140;2023-04-06T04:29:13;-0.42;118.99
65559;DHT22;52203;51.998;5.140;2023-04-06T04:35:18;-0.36;118.99
65559;DHT22;52203;51.998;5.140;2023-04-06T04:37:44;-0.36;118.99
65559;DHT22;52203;51.998;5.140;2023-04-06T04:40:10;-0.27;118.99
65559;DHT22;52203;51.998;5.140;2023-04-06T04:42:52;-0.29;118.99
65559;DHT22;52203;51.998;5.140;2023-04-06T04:45:23;-0.34;118.99
65559;DHT22;52203;51.998;5.140;2023-04-06T04:47:55;-0.35;118.99
65559;DHT22;52203;51.998;5.140;2023-04-06T04:50:39;-0.37;118.99
65559;DHT22;52203;51.998;5.140;2023-04-06T04:57:29;-0.37;118.99
65559;DHT22;52203;51.998;5.140;2023-04-06T05:07:56;-0.29;118.99
65559;DHT22;52203;51.998;5.140;2023-04-06T05:24:28;-0.25;118.99
65559;DHT22;52203;51.998;5.140;2023-04-06T05:26:54;-0.25;118.99
65559;DHT22;52203;51.998;5.140;2023-04-06T05:29:20;-0.27;118.99
65559;DHT22;52203;51.998;5.140;2023-04-06T05:32:00;-0.21;118.99
65559;DHT22;52203;51.998;5.140;2023-04-06T05:34:29;-0.19;118.99
65559;DHT22;52203;51.998;5.140;2023-04-06T05:37:07;-0.22;118.99
65559;DHT22;52203;51.998;5.140;2023-04-06T05:46:10;-0.23;118.99
65559;DHT22;52203;51.998;5.140;2023-04-06T05:48:52;0.43;118.99
65559;DHT22;52203;51.998;5.140;2023-04-06T05:51:30;0.38;118.99
65559;DHT22;52203;51.998;5.140;2023-04-06T05:57:29;0.36;118.99
65559;DHT22;52203;51.998;5.140;2023-04-06T06:00:14;0.50;118.99
65559;DHT22;52203;51.998;5.140;2023-04-06T06:02:47;0.57;118.99
65559;DHT22;52203;51.998;5.140;2023-04-06T06:05:23;0.65;118.99
65559;DHT22;52203;51.998;5.140;2023-04-06T06:07:52;0.97;118.99
65559;DHT22;52203;51.998;5.140;2023-04-06T06:10:38;1.10;118.99
65559;DHT22;52203;51.998;5.140;2023-04-06T06:13:14;1.14;118.99
65559;DHT22;52203;51.998;5.140;2023-04-06T06:16:28;1.45;118.99
65559;DHT22;52203;51.998;5.140;2023-04-06T06:19:20;1.72;118.99
65559;DHT22;52203;51.998;5.140;2023-04-06T06:21:46;1.68;118.99
65559;DHT22;52203;51.998;5.140;2023-04-06T06:24:11;1.76;118.99
65559;DHT22;52203;51.998;5.140;2023-04-06T06:26:37;1.72;118.99
65559;DHT22;52203;51.998;5.140;2023-04-06T06:29:04;1.76;118.99
65559;DHT22;52203;51.998;5.140;2023-04-06T06:31:31;1.83;118.99
65559;DHT22;52203;51.998;5.140;2023-04-06T06:33:56;1.83;118.99
65559;DHT22;52203;51.998;5.140;2023-04-06T06:36:22;1.83;118.99
65559;DHT22;52203;51.998;5.140;2023-04-06T06:38:47;1.84;118.99
65559;DHT22;52203;51.998;5.140;2023-04-06T06:41:13;1.83;118.99
65559;DHT22;52203;51.998;5.140;2023-04-06T06:43:38;1.82;118.99
65559;DHT22;52203;51.998;5.140;2023-04-06T06:46:05;1.79;118.99
65559;DHT22;52203;51.998;5.140;2023-04-06T06:48:31;1.77;118.99
65559;DHT22;52203;51.998;5.140;2023-04-06T06:50:56;1.77;118.99
65559;DHT22;52203;51.998;5.140;2023-04-06T06:53:23;1.75;118.99
65559;DHT22;52203;51.998;5.140;2023-04-06T06:55:49;1.69;118.99
65559;DHT22;52203;51.998;5.140;2023-04-06T06:58:17;1.68;118.99
65559;DHT22;52203;51.998;5.140;2023-04-06T07:00:57;1.64;118.99
65559;DHT22;52203;51.998;5.140;2023-04-06T07:03:38;1.71;118.99
65559;DHT22;52203;51.998;5.140;2023-04-06T07:06:04;1.71;118.99
65559;DHT22;52203;51.998;5.140;2023-04-06T07:08:29;1.77;118.99
65559;DHT22;52203;51.998;5.140;2023-04-06T07:10:55;1.77;118.99
65559;DHT22;52203;51.998;5.140;2023-04-06T07:13:23;1.78;118.99
65559;DHT22;52203;51.998;5.140;2023-04-06T07:15:49;1.81;118.99
65559;DHT22;52203;51.998;5.140;2023-04-06T07:18:16;1.88;118.99
65559;DHT22;52203;51.998;5.140;2023-04-06T07:20:45;1.94;118.99
65559;DHT22;52203;51.998;5.140;2023-04-06T07:23:10;2.02;118.99
65559;DHT22;52203;51.998;5.140;2023-04-06T07:25:36;2.11;118.99
65559;DHT22;52203;51.998;5.140;2023-04-06T07:28:04;2.19;118.99
65559;DHT22;52203;51.998;5.140;2023-04-06T07:30:30;2.27;118.99
65559;DHT22;52203;51.998;5.140;2023-04-06T07:32:56;2.31;118.99
65559;DHT22;52203;51.998;5.140;2023-04-06T07:35:26;2.38;118.99
65559;DHT22;52203;51.998;5.140;2023-04-06T07:37:55;2.41;118.99
65559;DHT22;52203;51.998;5.140;2023-04-06T07:40:21;2.51;118.99
65559;DHT22;52203;51.998;5.140;2023-04-06T07:42:47;2.61;118.99
65559;DHT22;52203;51.998;5.140;2023-04-06T07:45:12;2.64;118.99
65559;DHT22;52203;51.998;5.140;2023-04-06T07:47:38;2.78;118.99
65559;DHT22;52203;51.998;5.140;2023-04-06T07:50:04;2.84;118.99
65559;DHT22;52203;51.998;5.140;2023-04-06T07:52:29;2.89;118.99
65559;DHT22;52203;51.998;5.140;2023-04-06T07:54:57;2.94;118.99
65559;DHT22;52203;51.998;5.140;2023-04-06T07:57:23;3.10;118.99
65559;DHT22;52203;51.998;5.140;2023-04-06T07:59:48;3.21;118.99
65559;DHT22;52203;51.998;5.140;2023-04-06T08:02:13;3.21;118.99
65559;DHT22;52203;51.998;5.140;2023-04-06T08:04:40;3.26;118.99
65559;DHT22;52203;51.998;5.140;2023-04-06T08:07:05;3.10;118.99
65559;DHT22;52203;51.998;5.140;2023-04-06T08:09:31;3.17;118.99
65559;DHT22;52203;51.998;5.140;2023-04-06T08:11:57;3.05;118.99
65559;DHT22;52203;51.998;5.140;2023-04-06T08:14:23;3.03;118.99
65559;DHT22;52203;51.998;5.140;2023-04-06T08:16:48;3.06;118.99
65559;DHT22;52203;51.998;5.140;2023-04-06T08:19:14;3.02;118.99
65559;DHT22;52203;51.998;5.140;2023-04-06T08:21:42;3.12;118.99
65559;DHT22;52203;51.998;5.140;2023-04-06T08:24:08;3.16;118.99
65559;DHT22;52203;51.998;5.140;2023-04-06T08:26:33;3.24;118.99
65559;DHT22;52203;51.998;5.140;2023-04-06T08:28:59;3.27;118.99
65559;DHT22;52203;51.998;5.140;2023-04-06T08:31:24;3.29;118.99
65559;DHT22;52203;51.998;5.140;2023-04-06T08:33:51;3.30;118.99
65559;DHT22;52203;51.998;5.140;2023-04-06T08:36:17;3.26;118.99
65559;DHT22;52203;51.998;5.140;2023-04-06T08:38:48;3.27;118.99
65559;DHT22;52203;51.998;5.140;2023-04-06T08:41:14;3.17;118.99
65559;DHT22;52203;51.998;5.140;2023-04-06T08:43:46;3.17;118.99
65559;DHT22;52203;51.998;5.140;2023-04-06T08:46:12;3.16;118.99
65559;DHT22;52203;51.998;5.140;2023-04-06T08:48:40;3.30;118.99
65559;DHT22;52203;51.998;5.140;2023-04-06T08:51:06;3.34;118.99
65559;DHT22;52203;51.998;5.140;2023-04-06T08:53:32;3.44;118.99
65559;DHT22;52203;51.998;5.140;2023-04-06T08:55:58;3.46;118.99
65559;DHT22;52203;51.998;5.140;2023-04-06T08:58:25;3.46;118.99
65559;DHT22;52203;51.998;5.140;2023-04-06T09:00:53;3.39;118.99
65559;DHT22;52203;51.998;5.140;2023-04-06T09:03:19;3.48;118.99
65559;DHT22;52203;51.998;5.140;2023-04-06T09:05:46;3.48;118.99
65559;DHT22;52203;51.998;5.140;2023-04-06T09:08:12;3.46;118.99
65559;DHT22;52203;51.998;5.140;2023-04-06T09:10:41;3.45;118.99
65559;DHT22;52203;51.998;5.140;2023-04-06T09:13:08;3.48;118.99
65559;DHT22;52203;51.998;5.140;2023-04-06T09:15:34;3.50;118.99
65559;DHT22;52203;51.998;5.140;2023-04-06T09:18:00;3.60;118.99
65559;DHT22;52203;51.998;5.140;2023-04-06T09:20:27;3.62;118.99
65559;DHT22;52203;51.998;5.140;2023-04-06T09:22:54;3.72;118.99
65559;DHT22;52203;51.998;5.140;2023-04-06T09:25:24;3.74;118.99
65559;DHT22;52203;51.998;5.140;2023-04-06T09:27:59;3.87;118.99
65559;DHT22;52203;51.998;5.140;2023-04-06T09:30:25;3.89;118.99
65559;DHT22;52203;51.998;5.140;2023-04-06T09:32:53;4.06;118.99
65559;DHT22;52203;51.998;5.140;2023-04-06T09:35:20;4.23;118.99
65559;DHT22;52203;51.998;5.140;2023-04-06T09:37:50;4.34;118.99
65559;DHT22;52203;51.998;5.140;2023-04-06T09:40:16;4.41;118.99
65559;DHT22;52203;51.998;5.140;2023-04-06T09:42:49;4.52;118.99
65559;DHT22;52203;51.998;5.140;2023-04-06T09:45:19;4.51;118.99
65559;DHT22;52203;51.998;5.140;2023-04-06T09:47:46;4.47;118.99
65559;DHT22;52203;51.998;5.140;2023-04-06T09:50:13;4.36;118.99
65559;DHT22;52203;51.998;5.140;2023-04-06T09:55:08;4.15;118.99
65559;DHT22;52203;51.998;5.140;2023-04-06T09:57:57;4.13;118.99
65559;DHT22;52203;51.998;5.140;2023-04-06T10:00:25;4.15;118.99
65559;DHT22;52203;51.998;5.140;2023-04-06T10:05:55;4.14;118.99
65559;DHT22;52203;51.998;5.140;2023-04-06T10:08:27;4.18;118.99
65559;DHT22;52203;51.998;5.140;2023-04-06T10:10:54;4.18;118.99
65559;DHT22;52203;51.998;5.140;2023-04-06T10:13:20;4.21;118.99
65559;DHT22;52203;51.998;5.140;2023-04-06T10:15:46;4.15;118.99
65559;DHT22;52203;51.998;5.140;2023-04-06T10:18:12;4.03;118.99
65559;DHT22;52203;51.998;5.140;2023-04-06T10:20:43;4.01;118.99
65559;DHT22;52203;51.998;5.140;2023-04-06T10:26:17;3.88;118.99
65559;DHT22;52203;51.998;5.140;2023-04-06T10:28:45;3.80;118.99
65559;DHT22;52203;51.998;5.140;2023-04-06T10:31:13;3.79;118.99
65559;DHT22;52203;51.998;5.140;2023-04-06T10:34:13;3.76;118.99
65559;DHT22;52203;51.998;5.140;2023-04-06T10:37:13;3.77;118.99
65559;DHT22;52203;51.998;5.140;2023-04-06T10:39:56;3.80;118.99
65559;DHT22;52203;51.998;5.140;2023-04-06T10:42:36;3.82;118.99
65559;DHT22;52203;51.998;5.140;2023-04-06T10:45:07;3.87;118.99
65559;DHT22;52203;51.998;5.140;2023-04-06T10:47:40;3.91;118.99
65559;DHT22;52203;51.998;5.140;2023-04-06T10:50:14;3.90;118.99
65559;DHT22;52203;51.998;5.140;2023-04-06T10:52:40;3.97;118.99
65559;DHT22;52203;51.998;5.140;2023-04-06T10:55:08;3.87;118.99
65559;DHT22;52203;51.998;5.140;2023-04-06T10:57:35;3.91;118.99
65559;DHT22;52203;51.998;5.140;2023-04-06T11:00:06;3.90;118.99
65559;DHT22;52203;51.998;5.140;2023-04-06T11:02:35;3.89;118.99
65559;DHT22;52203;51.998;5.140;2023-04-06T11:05:03;3.93;118.99
65559;DHT22;52203;51.998;5.140;2023-04-06T11:07:28;4.04;118.99
65559;DHT22;52203;51.998;5.140;2023-04-06T11:09:56;4.17;118.99
65559;DHT22;52203;51.998;5.140;2023-04-06T11:12:26;4.19;118.99
65559;DHT22;52203;51.998;5.140;2023-04-06T11:15:00;4.16;118.99
65559;DHT22;52203;51.998;5.140;2023-04-06T11:17:35;4.12;118.99
65559;DHT22;52203;51.998;5.140;2023-04-06T11:20:02;4.15;118.99
65559;DHT22;52203;51.998;5.140;2023-04-06T11:22:32;4.06;118.99
65559;DHT22;52203;51.998;5.140;2023-04-06T11:25:08;4.01;118.99
65559;DHT22;52203;51.998;5.140;2023-04-06T11:27:34;3.99;118.99
65559;DHT22;52203;51.998;5.140;2023-04-06T11:30:01;4.03;118.99
65559;DHT22;52203;51.998;5.140;2023-04-06T11:32:27;4.03;118.99
65559;DHT22;52203;51.998;5.140;2023-04-06T11:34:53;3.97;118.99
65559;DHT22;52203;51.998;5.140;2023-04-06T11:37:18;3.98;118.99
65559;DHT22;52203;51.998;5.140;2023-04-06T11:39:49;3.92;118.99
65559;DHT22;52203;51.998;5.140;2023-04-06T11:42:26;3.93;118.99
65559;DHT22;52203;51.998;5.140;2023-04-06T11:44:54;4.05;118.99
65559;DHT22;52203;51.998;5.140;2023-04-06T11:47:20;4.08;118.99
65559;DHT22;52203;51.998;5.140;2023-04-06T11:49:47;4.03;118.99
65559;DHT22;52203;51.998;5.140;2023-04-06T11:52:26;4.08;118.99
65559;DHT22;52203;51.998;5.140;2023-04-06T11:54:53;4.22;118.99
65559;DHT22;52203;51.998;5.140;2023-04-06T11:57:21;4.28;118.99
65559;DHT22;52203;51.998;5.140;2023-04-06T11:59:48;4.30;118.99
65559;DHT22;52203;51.998;5.140;2023-04-06T12:02:14;4.28;118.99
65559;DHT22;52203;51.998;5.140;2023-04-06T12:04:39;4.28;118.99
65559;DHT22;52203;51.998;5.140;2023-04-06T12:07:05;4.38;118.99
65559;DHT22;52203;51.998;5.140;2023-04-06T12:09:30;4.41;118.99
65559;DHT22;52203;51.998;5.140;2023-04-06T12:11:56;4.41;118.99
65559;DHT22;52203;51.998;5.140;2023-04-06T12:14:22;4.28;118.99
65559;DHT22;52203;51.998;5.140;2023-04-06T12:16:50;4.15;118.99
65559;DHT22;52203;51.998;5.140;2023-04-06T12:19:16;4.14;118.99
65559;DHT22;52203;51.998;5.140;2023-04-06T12:21:42;4.08;118.99
65559;DHT22;52203;51.998;5.140;2023-04-06T12:24:08;4.00;118.99
65559;DHT22;52203;51.998;5.140;2023-04-06T12:26:37;4.01;118.99
65559;DHT22;52203;51.998;5.140;2023-04-06T12:29:02;3.98;118.99
65559;DHT22;52203;51.998;5.140;2023-04-06T12:31:33;4.01;118.99
65559;DHT22;52203;51.998;5.140;2023-04-06T12:33:59;4.01;118.99
65559;DHT22;52203;51.998;5.140;2023-04-06T12:36:25;4.04;118.99
65559;DHT22;52203;51.998;5.140;2023-04-06T12:38:50;3.98;118.99
65559;DHT22;52203;51.998;5.140;2023-04-06T12:41:17;3.99;118.99
65559;DHT22;52203;51.998;5.140;2023-04-06T12:43:42;4.03;118.99
65559;DHT22;52203;51.998;5.140;2023-04-06T12:46:08;4.01;118.99
65559;DHT22;52203;51.998;5.140;2023-04-06T12:48:34;3.99;118.99
65559;DHT22;52203;51.998;5.140;2023-04-06T12:51:02;4.01;118.99
65559;DHT22;52203;51.998;5.140;2023-04-06T12:53:28;4.03;118.99
65559;DHT22;52203;51.998;5.140;2023-04-06T12:55:54;4.02;118.99
65559;DHT22;52203;51.998;5.140;2023-04-06T12:58:21;3.99;118.99
65559;DHT22;52203;51.998;5.140;2023-04-06T13:00:50;3.90;118.99
65559;DHT22;52203;51.998;5.140;2023-04-06T13:03:16;3.89;118.99
65559;DHT22;52203;51.998;5.140;2023-04-06T13:05:49;3.94;118.99
65559;DHT22;52203;51.998;5.140;2023-04-06T13:08:16;3.97;118.99
65559;DHT22;52203;51.998;5.140;2023-04-06T13:10:51;3.99;118.99
65559;DHT22;52203;51.998;5.140;2023-04-06T13:13:24;3.95;118.99
65559;DHT22;52203;51.998;5.140;2023-04-06T13:15:50;3.98;118.99
65559;DHT22;52203;51.998;5.140;2023-04-06T13:18:16;3.93;118.99
65559;DHT22;52203;51.998;5.140;2023-04-06T13:20:42;3.97;118.99
65559;DHT22;52203;51.998;5.140;2023-04-06T13:23:10;3.91;118.99
65559;DHT22;52203;51.998;5.140;2023-04-06T13:25:39;3.91;118.99
65559;DHT22;52203;51.998;5.140;2023-04-06T13:28:11;3.89;118.99
65559;DHT22;52203;51.998;5.140;2023-04-06T13:30:38;3.98;118.99
65559;DHT22;52203;51.998;5.140;2023-04-06T13:33:04;4.02;118.99
65559;DHT22;52203;51.998;5.140;2023-04-06T13:35:31;4.00;118.99
65559;DHT22;52203;51.998;5.140;2023-04-06T13:37:57;4.01;118.99
65559;DHT22;52203;51.998;5.140;2023-04-06T13:40:23;3.97;118.99
65559;DHT22;52203;51.998;5.140;2023-04-06T13:42:48;3.91;118.99
65559;DHT22;52203;51.998;5.140;2023-04-06T13:45:14;3.92;118.99
65559;DHT22;52203;51.998;5.140;2023-04-06T13:47:39;3.90;118.99
65559;DHT22;52203;51.998;5.140;2023-04-06T13:50:06;3.87;118.99
65559;DHT22;52203;51.998;5.140;2023-04-06T13:52:31;3.84;118.99
65559;DHT22;52203;51.998;5.140;2023-04-06T13:54:57;3.88;118.99
65559;DHT22;52203;51.998;5.140;2023-04-06T13:57:22;3.85;118.99
65559;DHT22;52203;51.998;5.140;2023-04-06T13:59:48;3.77;118.99
65559;DHT22;52203;51.998;5.140;2023-04-06T14:02:15;3.77;118.99
65559;DHT22;52203;51.998;5.140;2023-04-06T14:04:41;3.71;118.99
65559;DHT22;52203;51.998;5.140;2023-04-06T14:07:06;3.69;118.99
65559;DHT22;52203;51.998;5.140;2023-04-06T14:09:33;3.68;118.99
65559;DHT22;52203;51.998;5.140;2023-04-06T14:11:59;3.67;118.99
65559;DHT22;52203;51.998;5.140;2023-04-06T14:14:25;3.67;118.99
65559;DHT22;52203;51.998;5.140;2023-04-06T14:16:54;3.64;118.99
65559;DHT22;52203;51.998;5.140;2023-04-06T14:19:29;3.61;118.99
65559;DHT22;52203;51.998;5.140;2023-04-06T14:21:54;3.61;118.99
65559;DHT22;52203;51.998;5.140;2023-04-06T14:24:21;3.62;118.99
65559;DHT22;52203;51.998;5.140;2023-04-06T14:27:10;3.60;118.99
65559;DHT22;52203;51.998;5.140;2023-04-06T14:32:40;3.59;118.99
65559;DHT22;52203;51.998;5.140;2023-04-06T14:35:06;3.61;118.99
65559;DHT22;52203;51.998;5.140;2023-04-06T14:37:31;3.62;118.99
65559;DHT22;52203;51.998;5.140;2023-04-06T14:39:57;3.63;118.99
65559;DHT22;52203;51.998;5.140;2023-04-06T14:42:22;3.62;118.99
65559;DHT22;52203;51.998;5.140;2023-04-06T14:44:48;3.67;118.99
65559;DHT22;52203;51.998;5.140;2023-04-06T14:47:14;3.67;118.99
65559;DHT22;52203;51.998;5.140;2023-04-06T14:49:45;3.70;118.99
65559;DHT22;52203;51.998;5.140;2023-04-06T14:52:11;3.65;118.99
65559;DHT22;52203;51.998;5.140;2023-04-06T14:54:36;3.65;118.99
65559;DHT22;52203;51.998;5.140;2023-04-06T14:57:02;3.69;118.99
65559;DHT22;52203;51.998;5.140;2023-04-06T14:59:28;3.69;118.99
65559;DHT22;52203;51.998;5.140;2023-04-06T15:01:54;3.67;118.99
65559;DHT22;52203;51.998;5.140;2023-04-06T15:04:19;3.62;118.99
65559;DHT22;52203;51.998;5.140;2023-04-06T15:06:45;3.61;118.99
65559;DHT22;52203;51.998;5.140;2023-04-06T15:09:10;3.59;118.99
65559;DHT22;52203;51.998;5.140;2023-04-06T15:11:36;3.55;118.99
65559;DHT22;52203;51.998;5.140;2023-04-06T15:14:02;3.58;118.99
65559;DHT22;52203;51.998;5.140;2023-04-06T15:16:27;3.59;118.99
65559;DHT22;52203;51.998;5.140;2023-04-06T15:18:58;3.58;118.99
65559;DHT22;52203;51.998;5.140;2023-04-06T15:21:23;3.58;118.99
65559;DHT22;52203;51.998;5.140;2023-04-06T15:23:48;3.60;118.99
65559;DHT22;52203;51.998;5.140;2023-04-06T15:26:15;3.67;118.99
65559;DHT22;52203;51.998;5.140;2023-04-06T15:28:40;3.67;118.99
65559;DHT22;52203;51.998;5.140;2023-04-06T15:31:19;3.63;118.99
65559;DHT22;52203;51.998;5.140;2023-04-06T15:33:51;3.62;118.99
65559;DHT22;52203;51.998;5.140;2023-04-06T15:36:27;3.61;118.99
65559;DHT22;52203;51.998;5.140;2023-04-06T15:38:57;3.65;118.99
65559;DHT22;52203;51.998;5.140;2023-04-06T15:41:23;3.68;118.99
65559;DHT22;52203;51.998;5.140;2023-04-06T15:43:48;3.68;118.99
65559;DHT22;52203;51.998;5.140;2023-04-06T15:46:15;3.68;118.99
65559;DHT22;52203;51.998;5.140;2023-04-06T15:48:41;3.69;118.99
65559;DHT22;52203;51.998;5.140;2023-04-06T15:51:07;3.71;118.99
65559;DHT22;52203;51.998;5.140;2023-04-06T15:53:32;3.73;118.99
65559;DHT22;52203;51.998;5.140;2023-04-06T15:56:02;3.74;118.99
65559;DHT22;52203;51.998;5.140;2023-04-06T15:58:28;3.74;118.99
65559;DHT22;52203;51.998;5.140;2023-04-06T16:00:54;3.72;118.99
65559;DHT22;52203;51.998;5.140;2023-04-06T16:03:20;3.74;118.99
65559;DHT22;52203;51.998;5.140;2023-04-06T16:05:45;3.73;118.99
65559;DHT22;52203;51.998;5.140;2023-04-06T16:08:11;3.72;118.99
65559;DHT22;52203;51.998;5.140;2023-04-06T16:10:39;3.69;118.99
65559;DHT22;52203;51.998;5.140;2023-04-06T16:13:06;3.73;118.99
65559;DHT22;52203;51.998;5.140;2023-04-06T16:15:32;3.73;118.99
65559;DHT22;52203;51.998;5.140;2023-04-06T16:17:58;3.74;118.99
65559;DHT22;52203;51.998;5.140;2023-04-06T16:20:24;3.73;118.99
65559;DHT22;52203;51.998;5.140;2023-04-06T16:22:49;3.75;118.99
65559;DHT22;52203;51.998;5.140;2023-04-06T16:25:15;3.77;118.99
65559;DHT22;52203;51.998;5.140;2023-04-06T16:27:41;3.78;118.99
65559;DHT22;52203;51.998;5.140;2023-04-06T16:30:08;3.78;118.99
65559;DHT22;52203;51.998;5.140;2023-04-06T16:32:34;3.77;118.99
65559;DHT22;52203;51.998;5.140;2023-04-06T16:34:59;3.78;118.99
65559;DHT22;52203;51.998;5.140;2023-04-06T16:37:26;3.78;118.99
65559;DHT22;52203;51.998;5.140;2023-04-06T16:39:51;3.79;118.99
65559;DHT22;52203;51.998;5.140;2023-04-06T16:42:17;3.82;118.99
65559;DHT22;52203;51.998;5.140;2023-04-06T16:44:45;3.82;118.99
65559;DHT22;52203;51.998;5.140;2023-04-06T16:47:13;3.80;118.99
65559;DHT22;52203;51.998;5.140;2023-04-06T16:49:38;3.82;118.99
65559;DHT22;52203;51.998;5.140;2023-04-06T16:52:04;3.87;118.99
65559;DHT22;52203;51.998;5.140;2023-04-06T16:54:30;3.89;118.99
65559;DHT22;52203;51.998;5.140;2023-04-06T16:56:59;3.87;118.99
65559;DHT22;52203;51.998;5.140;2023-04-06T16:59:26;3.89;118.99
65559;DHT22;52203;51.998;5.140;2023-04-06T17:01:51;3.91;118.99
65559;DHT22;52203;51.998;5.140;2023-04-06T17:04:17;3.90;118.99
65559;DHT22;52203;51.998;5.140;2023-04-06T17:06:42;3.91;118.99
65559;DHT22;52203;51.998;5.140;2023-04-06T17:09:08;3.89;118.99
65559;DHT22;52203;51.998;5.140;2023-04-06T17:11:33;3.91;118.99
65559;DHT22;52203;51.998;5.140;2023-04-06T17:13:59;3.90;118.99
65559;DHT22;52203;51.998;5.140;2023-04-06T17:16:25;3.91;118.99
65559;DHT22;52203;51.998;5.140;2023-04-06T17:18:50;3.91;118.99
65559;DHT22;52203;51.998;5.140;2023-04-06T17:21:16;3.92;118.99
65559;DHT22;52203;51.998;5.140;2023-04-06T17:23:44;3.94;118.99
65559;DHT22;52203;51.998;5.140;2023-04-06T17:26:11;3.92;118.99
65559;DHT22;52203;51.998;5.140;2023-04-06T17:28:36;3.93;118.99
65559;DHT22;52203;51.998;5.140;2023-04-06T17:31:06;3.93;118.99
65559;DHT22;52203;51.998;5.140;2023-04-06T17:33:33;3.92;118.99
65559;DHT22;52203;51.998;5.140;2023-04-06T17:35:59;3.94;118.99
65559;DHT22;52203;51.998;5.140;2023-04-06T17:38:25;3.97;118.99
65559;DHT22;52203;51.998;5.140;2023-04-06T17:40:50;3.98;118.99
65559;DHT22;52203;51.998;5.140;2023-04-06T17:43:16;3.98;118.99
65559;DHT22;52203;51.998;5.140;2023-04-06T17:45:42;3.97;118.99
65559;DHT22;52203;51.998;5.140;2023-04-06T17:48:08;3.98;118.99
65559;DHT22;52203;51.998;5.140;2023-04-06T17:50:36;3.97;118.99
65559;DHT22;52203;51.998;5.140;2023-04-06T17:53:03;3.95;118.99
65559;DHT22;52203;51.998;5.140;2023-04-06T17:55:29;3.97;118.99
65559;DHT22;52203;51.998;5.140;2023-04-06T17:57:55;3.95;118.99
65559;DHT22;52203;51.998;5.140;2023-04-06T18:00:20;3.99;118.99
65559;DHT22;52203;51.998;5.140;2023-04-06T18:02:49;3.98;118.99
65559;DHT22;52203;51.998;5.140;2023-04-06T18:05:17;3.98;118.99
65559;DHT22;52203;51.998;5.140;2023-04-06T18:07:42;4.00;118.99
65559;DHT22;52203;51.998;5.140;2023-04-06T18:10:08;4.00;118.99
65559;DHT22;52203;51.998;5.140;2023-04-06T18:12:34;4.00;118.99
65559;DHT22;52203;51.998;5.140;2023-04-06T18:14:59;4.00;118.99
65559;DHT22;52203;51.998;5.140;2023-04-06T18:17:25;4.00;118.99
65559;DHT22;52203;51.998;5.140;2023-04-06T18:19:50;4.00;118.99
65559;DHT22;52203;51.998;5.140;2023-04-06T18:22:16;7.32;118.99
65559;DHT22;52203;51.998;5.140;2023-04-06T18:24:42;7.40;118.99
65559;DHT22;52203;51.998;5.140;2023-04-06T18:27:08;7.43;118.99
65559;DHT22;52203;51.998;5.140;2023-04-06T18:29:34;7.46;118.99
65559;DHT22;52203;51.998;5.140;2023-04-06T18:32:01;7.48;118.99
65559;DHT22;52203;51.998;5.140;2023-04-06T18:34:26;7.49;118.99
65559;DHT22;52203;51.998;5.140;2023-04-06T18:36:52;7.50;118.99
65559;DHT22;52203;51.998;5.140;2023-04-06T18:39:17;7.55;118.99
65559;DHT22;52203;51.998;5.140;2023-04-06T18:41:43;7.57;118.99
65559;DHT22;52203;51.998;5.140;2023-04-06T18:44:08;7.56;118.99
65559;DHT22;52203;51.998;5.140;2023-04-06T18:46:34;7.56;118.99